Time;durP1;ratioP1;P1;durP2;ratioP2;P2;SDS_P1;SDS_P2;PMS_P1;PMS_P2;Temp;Humidity;BMP_temperature;BMP_pressure;BME280_temperature;BME280_humidity;BME280_pressure;Samples;Min_cycle;Max_cycle;Signal;HPM_P1;HPM_P2
2021/05/06 00:34:00;;;;;;;17.53;13.90;;;6.10;99.90;;;;;;5083162;28;20442;-70
2021/05/06 00:36:26;;;;;;;16.83;14.40;;;6.20;99.90;;;;;;5070661;28;20450;-70
2021/05/06 00:38:55;;;;;;;15.57;11.70;;;6.20;99.90;;;;;;5069806;28;20444;-70
2021/05/06 01:03:06;;;;;;;9.40;8.60;;;5.80;99.90;;;;;;5172953;27;20506;-68
2021/05/06 01:05:38;;;;;;;8.83;8.13;;;5.70;99.90;;;;;;5172820;27;20374;-68
2021/05/06 01:08:11;;;;;;;11.00;9.90;;;5.70;99.90;;;;;;5173058;27;20421;-69
2021/05/06 01:10:57;;;;;;;11.40;9.97;;;5.60;99.90;;;;;;5173011;27;20405;-69
2021/05/06 01:13:27;;;;;;;13.63;12.20;;;5.60;99.90;;;;;;5172628;27;20409;-69
2021/05/06 01:15:52;;;;;;;11.97;10.97;;;5.50;99.90;;;;;;5172776;27;20760;-68
2021/05/06 01:18:19;;;;;;;12.87;11.67;;;5.50;99.90;;;;;;5172805;27;20390;-69
2021/05/06 01:20:48;;;;;;;13.17;11.97;;;5.50;99.90;;;;;;5172432;27;20505;-68
2021/05/06 01:23:15;;;;;;;11.37;10.17;;;5.50;99.90;;;;;;5172745;27;20397;-69
2021/05/06 01:25:46;;;;;;;11.87;10.67;;;5.50;99.90;;;;;;5172943;27;20389;-69
2021/05/06 01:28:15;;;;;;;10.67;9.70;;;5.60;99.90;;;;;;5172411;27;20835;-68
2021/05/06 01:30:46;;;;;;;11.60;10.47;;;5.60;99.90;;;;;;5172345;27;20790;-68
2021/05/06 01:33:18;;;;;;;13.17;11.63;;;5.70;99.90;;;;;;5172126;27;20845;-69
2021/05/06 01:35:56;;;;;;;11.87;10.70;;;5.70;99.90;;;;;;5172217;27;20434;-68
2021/05/06 01:38:36;;;;;;;12.43;11.07;;;5.70;99.90;;;;;;5172481;27;20378;-69
2021/05/06 01:49:30;;;;;;;14.00;10.43;;;5.60;99.90;;;;;;5110774;27;20523;-69
2021/05/06 02:00:17;;;;;;;9.63;8.70;;;5.70;99.90;;;;;;5086778;28;20521;-70
2021/05/06 02:02:44;;;;;;;10.63;9.70;;;5.70;99.90;;;;;;5070042;28;20444;-70
2021/05/06 02:05:10;;;;;;;10.77;9.77;;;5.70;99.90;;;;;;5070372;28;20422;-69
2021/05/06 02:07:39;;;;;;;8.70;7.83;;;5.60;99.90;;;;;;5070561;28;20378;-69
2021/05/06 02:10:07;;;;;;;9.67;8.77;;;5.60;99.90;;;;;;5070040;28;20386;-69
2021/05/06 02:12:33;;;;;;;10.20;9.23;;;5.60;99.90;;;;;;5070100;28;20390;-69
2021/05/06 02:15:06;;;;;;;9.67;8.43;;;5.60;99.90;;;;;;5069935;28;20381;-69
2021/05/06 02:17:32;;;;;;;9.80;8.10;;;5.60;99.90;;;;;;5069773;28;20181;-69
2021/05/06 02:19:58;;;;;;;8.63;7.93;;;5.60;99.90;;;;;;5070487;28;20520;-69
2021/05/06 02:22:24;;;;;;;8.50;7.70;;;5.60;99.90;;;;;;5070130;28;20398;-69
2021/05/06 02:24:50;;;;;;;8.03;7.23;;;5.60;99.90;;;;;;5069763;28;20151;-69
2021/05/06 02:27:15;;;;;;;7.93;7.13;;;5.60;99.90;;;;;;5069750;28;20390;-69
2021/05/06 02:29:41;;;;;;;12.80;7.20;;;5.70;99.90;;;;;;5069724;28;20170;-70
2021/05/06 02:32:07;;;;;;;7.93;7.13;;;5.70;99.90;;;;;;5069711;28;20545;-69
2021/05/06 02:34:33;;;;;;;9.23;7.50;;;5.70;99.90;;;;;;5069425;28;20183;-69
2021/05/06 02:36:59;;;;;;;13.10;8.60;;;5.70;99.90;;;;;;5069988;28;20750;-69
2021/05/06 02:39:25;;;;;;;8.77;7.80;;;5.70;99.90;;;;;;5069410;28;20240;-69
2021/05/06 02:41:51;;;;;;;10.23;8.20;;;5.70;99.90;;;;;;5069361;28;20922;-70
2021/05/06 02:44:16;;;;;;;9.63;7.63;;;5.70;99.90;;;;;;5069408;28;20163;-69
2021/05/06 02:46:42;;;;;;;7.93;7.10;;;5.70;99.90;;;;;;5070033;28;20156;-70
2021/05/06 02:49:08;;;;;;;8.03;7.33;;;5.70;99.90;;;;;;5069242;28;20532;-70
2021/05/06 02:51:38;;;;;;;8.10;7.20;;;5.70;99.90;;;;;;5069182;28;20598;-70
2021/05/06 02:54:04;;;;;;;7.83;7.13;;;5.80;99.90;;;;;;5069252;28;20748;-70
2021/05/06 02:56:37;;;;;;;7.27;6.67;;;5.80;99.90;;;;;;5069175;28;20403;-70
2021/05/06 02:59:32;;;;;;;7.67;6.97;;;5.80;99.90;;;;;;5069001;28;20461;-67
2021/05/06 03:04:33;;;;;;;9.43;7.40;;;5.80;99.90;;;;;;5068212;28;20412;-67
2021/05/06 03:07:04;;;;;;;8.40;6.90;;;5.90;99.90;;;;;;5068956;28;20397;-67
2021/05/06 03:12:23;;;;;;;9.23;7.30;;;5.90;99.90;;;;;;5131328;27;20573;-65
2021/05/06 03:23:05;;;;;;;6.00;5.40;;;6.00;99.90;;;;;;5130445;28;20398;-65
2021/05/06 03:25:31;;;;;;;6.33;5.67;;;6.00;99.90;;;;;;5124355;28;20412;-65
2021/05/06 03:28:02;;;;;;;5.87;5.27;;;6.10;99.90;;;;;;5110464;28;20207;-66
2021/05/06 03:41:39;;;;;;;5.73;4.93;;;6.20;99.90;;;;;;5111543;28;20419;-66
2021/05/06 03:50:16;;;;;;;4.73;4.33;;;6.20;99.90;;;;;;5082382;28;20413;-67
2021/05/06 04:28:12;;;;;;;6.13;3.80;;;6.40;99.90;;;;;;5088018;28;20415;-67
2021/05/06 04:35:43;;;;;;;4.60;3.43;;;6.50;99.90;;;;;;5056264;28;20406;-66
2021/05/06 04:38:11;;;;;;;6.43;3.87;;;6.50;99.90;;;;;;5070226;28;20801;-66
2021/05/06 04:57:20;;;;;;;5.37;4.43;;;6.60;99.90;;;;;;5151972;27;20519;-66
2021/05/06 05:05:09;;;;;;;7.20;3.80;;;6.70;99.90;;;;;;5046267;28;20899;-67
2021/05/06 05:07:39;;;;;;;9.83;4.60;;;6.80;99.90;;;;;;5039196;28;20424;-67
2021/05/06 05:13:33;;;;;;;5.70;4.93;;;6.80;99.90;;;;;;5110783;27;20513;-67
2021/05/06 05:18:52;;;;;;;6.07;3.80;;;6.80;99.90;;;;;;5124880;28;20893;-67
2021/05/06 05:21:24;;;;;;;9.33;4.67;;;6.80;99.90;;;;;;5110761;28;20408;-67
2021/05/06 05:23:53;;;;;;;4.70;4.00;;;6.80;99.90;;;;;;5109439;28;20775;-67
2021/05/06 05:26:18;;;;;;;5.23;3.87;;;6.80;99.90;;;;;;5090367;28;20389;-67
2021/05/06 05:28:44;;;;;;;5.23;4.17;;;6.80;99.90;;;;;;5090237;28;20774;-67
2021/05/06 05:31:10;;;;;;;8.70;5.70;;;6.90;99.90;;;;;;5090468;28;20235;-67
2021/05/06 05:33:44;;;;;;;4.93;4.37;;;6.90;99.90;;;;;;5090643;28;20166;-67
2021/05/06 05:36:16;;;;;;;6.33;5.00;;;6.90;99.90;;;;;;5092271;28;20388;-67
2021/05/06 05:38:50;;;;;;;6.77;5.43;;;7.00;99.90;;;;;;5097347;28;20750;-67
2021/05/06 05:54:48;;;;;;;8.67;5.80;;;7.40;99.90;;;;;;5081669;28;20409;-67
2021/05/06 05:57:14;;;;;;;6.93;5.53;;;7.60;99.90;;;;;;5071310;28;20871;-67
2021/05/06 05:59:40;;;;;;;6.90;6.20;;;7.70;99.90;;;;;;5071829;28;20249;-67
2021/05/06 06:02:06;;;;;;;7.83;6.27;;;7.70;99.90;;;;;;5070083;28;20923;-66
2021/05/06 06:04:32;;;;;;;9.90;6.70;;;7.80;99.90;;;;;;5068191;28;20526;-67
2021/05/06 06:06:57;;;;;;;9.87;6.80;;;7.80;99.90;;;;;;5067772;28;20481;-67
2021/05/06 06:09:23;;;;;;;7.03;6.33;;;7.90;99.90;;;;;;5067881;28;20390;-67
2021/05/06 06:11:48;;;;;;;7.17;6.40;;;7.90;99.90;;;;;;5072531;28;20547;-67
2021/05/06 06:14:19;;;;;;;7.97;7.17;;;8.00;99.90;;;;;;5079021;28;20254;-67
2021/05/06 06:16:44;;;;;;;9.27;7.43;;;8.00;99.90;;;;;;5084560;28;20167;-67
2021/05/06 06:19:10;;;;;;;8.53;7.70;;;8.00;99.90;;;;;;5074253;28;20574;-67
2021/05/06 06:24:13;;;;;;;10.77;7.70;;;8.10;99.90;;;;;;5104892;27;20459;-67
2021/05/06 06:26:38;;;;;;;11.27;8.77;;;8.10;99.90;;;;;;5110853;28;20617;-67
2021/05/06 06:29:08;;;;;;;10.13;9.20;;;8.10;99.90;;;;;;5077163;28;20201;-67
2021/05/06 06:31:46;;;;;;;10.37;7.77;;;8.10;99.90;;;;;;5111001;28;20183;-67
2021/05/06 06:34:12;;;;;;;10.23;9.37;;;8.10;99.90;;;;;;5090188;28;20400;-67
2021/05/06 06:36:43;;;;;;;10.53;9.43;;;8.10;99.90;;;;;;5090072;28;20912;-67
2021/05/06 06:39:10;;;;;;;10.53;9.53;;;8.10;99.90;;;;;;5090144;28;20463;-67
2021/05/06 06:41:36;;;;;;;10.10;9.17;;;8.10;99.90;;;;;;5089861;28;20388;-67
2021/05/06 06:44:02;;;;;;;11.90;10.80;;;8.10;99.90;;;;;;5090207;28;20448;-67
2021/05/06 06:46:27;;;;;;;11.83;10.43;;;8.10;99.90;;;;;;5090421;28;20150;-67
2021/05/06 06:48:53;;;;;;;12.30;11.10;;;8.10;99.90;;;;;;5089739;28;20392;-67
2021/05/06 06:51:19;;;;;;;10.50;9.60;;;8.10;99.90;;;;;;5096553;28;20184;-67
2021/05/06 06:53:44;;;;;;;11.53;10.27;;;8.10;99.90;;;;;;5103263;28;20185;-67
2021/05/06 06:56:10;;;;;;;10.67;9.57;;;8.20;99.90;;;;;;5096978;28;20264;-67
2021/05/06 06:58:38;;;;;;;10.90;9.90;;;8.20;99.90;;;;;;5089566;28;20224;-67
2021/05/06 07:01:03;;;;;;;10.40;9.50;;;8.20;99.90;;;;;;5092643;28;20219;-67
2021/05/06 07:03:29;;;;;;;11.93;10.93;;;8.20;99.90;;;;;;5089768;28;20483;-67
2021/05/06 07:05:56;;;;;;;11.33;10.33;;;8.30;99.90;;;;;;5072210;28;20169;-67
2021/05/06 07:11:00;;;;;;;12.47;10.07;;;8.20;99.90;;;;;;5090273;27;20574;-67
2021/05/06 07:13:26;;;;;;;10.87;9.77;;;8.30;99.90;;;;;;5090918;28;20491;-67
2021/05/06 07:15:54;;;;;;;11.50;10.20;;;8.40;99.90;;;;;;5090674;28;20391;-67
2021/05/06 07:18:21;;;;;;;10.40;9.40;;;8.50;99.90;;;;;;5090436;28;20766;-67
2021/05/06 07:20:47;;;;;;;9.73;8.83;;;8.60;99.90;;;;;;5090323;28;20392;-67
2021/05/06 07:23:17;;;;;;;9.00;8.20;;;8.60;99.90;;;;;;5085585;28;20416;-66
2021/05/06 07:25:42;;;;;;;10.17;8.70;;;8.70;99.90;;;;;;5069925;28;20757;-67
2021/05/06 07:28:11;;;;;;;10.67;9.10;;;8.90;99.90;;;;;;5070666;28;20394;-67
2021/05/06 07:30:36;;;;;;;9.37;8.47;;;9.10;99.90;;;;;;5069922;28;20740;-67
2021/05/06 07:33:02;;;;;;;8.70;7.97;;;9.30;99.90;;;;;;5070040;28;20489;-67
2021/05/06 07:35:28;;;;;;;8.03;7.30;;;9.60;99.90;;;;;;5069937;28;20632;-67
2021/05/06 07:37:53;;;;;;;10.70;8.97;;;9.90;99.90;;;;;;5069407;28;20157;-67
2021/05/06 07:40:19;;;;;;;11.97;8.60;;;10.10;99.90;;;;;;5068472;28;20216;-67
2021/05/06 07:42:44;;;;;;;10.67;9.57;;;10.20;99.90;;;;;;5068695;28;20534;-67
2021/05/06 07:45:10;;;;;;;9.13;8.33;;;10.40;99.90;;;;;;5068503;28;20183;-67
2021/05/06 07:47:36;;;;;;;8.03;7.13;;;11.00;99.90;;;;;;5056399;28;20182;-67
2021/05/06 07:50:02;;;;;;;8.27;7.20;;;11.40;99.90;;;;;;5068923;28;20958;-67
2021/05/06 07:52:28;;;;;;;6.93;6.33;;;11.50;99.90;;;;;;5071456;28;20175;-67
2021/05/06 07:54:55;;;;;;;8.10;7.40;;;11.50;99.90;;;;;;5085631;28;20527;-67
2021/05/06 07:57:21;;;;;;;10.50;6.57;;;11.50;99.90;;;;;;5069190;28;20274;-67
2021/05/06 07:59:46;;;;;;;6.53;5.93;;;11.40;99.90;;;;;;5069275;28;20476;-67
2021/05/06 08:02:12;;;;;;;6.57;6.07;;;11.40;99.90;;;;;;5078082;28;20544;-67
2021/05/06 08:04:37;;;;;;;7.73;7.00;;;11.40;99.90;;;;;;5072410;28;20648;-67
2021/05/06 08:07:03;;;;;;;6.30;5.70;;;11.50;99.90;;;;;;5075117;28;20190;-67
2021/05/06 08:09:29;;;;;;;6.73;6.13;;;11.40;99.90;;;;;;5066714;28;20208;-67
2021/05/06 08:11:58;;;;;;;7.17;6.50;;;11.40;99.90;;;;;;5069203;28;20194;-67
2021/05/06 08:14:24;;;;;;;7.97;5.60;;;11.30;99.90;;;;;;5068814;28;20212;-67
2021/05/06 08:16:50;;;;;;;7.10;6.27;;;11.30;99.90;;;;;;5068816;28;20812;-67
2021/05/06 08:19:15;;;;;;;8.87;5.80;;;11.40;99.90;;;;;;5068455;28;20175;-67
2021/05/06 08:21:41;;;;;;;5.53;4.93;;;11.70;99.90;;;;;;5060917;28;20579;-67
2021/05/06 08:24:07;;;;;;;5.60;5.10;;;12.00;99.90;;;;;;5066898;28;20182;-67
2021/05/06 08:26:35;;;;;;;5.73;4.80;;;12.80;99.90;;;;;;5068459;28;20233;-67
2021/05/06 08:29:00;;;;;;;5.10;4.23;;;13.70;99.20;;;;;;5035420;28;20561;-67
2021/05/06 08:31:26;;;;;;;4.70;4.30;;;14.00;96.00;;;;;;5052253;28;20503;-67
2021/05/06 08:33:52;;;;;;;4.90;4.30;;;13.90;93.20;;;;;;5035541;28;20196;-67
2021/05/06 08:36:17;;;;;;;4.57;4.17;;;13.70;93.50;;;;;;5051474;28;20194;-67
2021/05/06 08:38:43;;;;;;;4.93;4.53;;;13.30;93.30;;;;;;5054869;28;20544;-67
2021/05/06 08:41:09;;;;;;;5.30;4.80;;;12.90;95.10;;;;;;5055808;28;20172;-67
2021/05/06 08:43:37;;;;;;;7.00;6.40;;;12.60;96.90;;;;;;5055374;28;20554;-67
2021/05/06 08:46:03;;;;;;;7.07;6.37;;;12.40;98.90;;;;;;5055175;28;20384;-67
2021/05/06 08:48:30;;;;;;;7.50;6.83;;;12.50;99.60;;;;;;5054663;28;20449;-67
2021/05/06 08:50:56;;;;;;;6.13;5.53;;;12.40;99.60;;;;;;5054924;28;20477;-67
2021/05/06 08:53:23;;;;;;;6.80;6.20;;;12.30;99.90;;;;;;5054996;28;20473;-67
2021/05/06 08:55:52;;;;;;;7.63;6.30;;;12.20;99.90;;;;;;5055549;28;20434;-67
2021/05/06 08:58:18;;;;;;;6.60;6.00;;;12.00;99.90;;;;;;5062329;28;20819;-67
2021/05/06 09:00:44;;;;;;;6.43;4.93;;;11.90;99.90;;;;;;5054637;28;20413;-67
2021/05/06 09:03:10;;;;;;;7.50;6.80;;;11.90;99.90;;;;;;5054965;28;20160;-67
2021/05/06 09:05:36;;;;;;;7.40;6.20;;;12.60;99.90;;;;;;5054736;28;20183;-67
2021/05/06 09:08:02;;;;;;;8.13;4.40;;;13.80;98.40;;;;;;5054471;28;20412;-67
2021/05/06 09:10:43;;;;;;;6.10;4.10;;;14.90;96.40;;;;;;5055171;28;20465;-67
2021/05/06 09:13:26;;;;;;;5.77;3.47;;;16.00;90.20;;;;;;5054624;28;20398;-67
2021/05/06 09:15:52;;;;;;;6.00;4.60;;;16.90;79.10;;;;;;5054401;28;20479;-67
2021/05/06 09:21:31;;;;;;;6.53;3.33;;;18.50;66.50;;;;;;5106967;27;20519;-67
2021/05/06 09:24:07;;;;;;;6.27;5.67;;;18.90;63.40;;;;;;5087043;28;20435;-67
2021/05/06 09:26:33;;;;;;;5.50;4.27;;;18.80;58.10;;;;;;5090406;28;20397;-67
2021/05/06 09:28:59;;;;;;;5.73;3.10;;;18.50;56.80;;;;;;5098750;28;20542;-66
2021/05/06 09:31:25;;;;;;;4.13;2.90;;;18.10;57.30;;;;;;5096055;28;20464;-66
2021/05/06 09:33:52;;;;;;;3.40;3.10;;;17.90;58.30;;;;;;5091425;28;20186;-67
2021/05/06 09:36:21;;;;;;;4.80;3.73;;;17.60;58.70;;;;;;5108383;28;20431;-66
2021/05/06 09:38:48;;;;;;;5.30;4.00;;;17.20;58.80;;;;;;5100338;28;20794;-67
2021/05/06 09:41:18;;;;;;;3.30;3.00;;;16.80;59.60;;;;;;5091501;28;20424;-67
2021/05/06 09:43:44;;;;;;;5.07;3.67;;;16.60;60.20;;;;;;5101865;28;20516;-67
2021/05/06 09:51:45;;;;;;;3.13;2.93;;;16.90;62.50;;;;;;5108174;27;20525;-67
2021/05/06 09:54:14;;;;;;;4.13;3.53;;;16.80;60.10;;;;;;5090750;28;20419;-67
2021/05/06 09:56:41;;;;;;;4.27;3.00;;;16.80;61.80;;;;;;5089396;28;20953;-67
2021/05/06 09:59:08;;;;;;;4.07;3.10;;;16.90;60.20;;;;;;5083148;28;20463;-67
2021/05/06 10:01:39;;;;;;;3.80;2.60;;;16.90;59.70;;;;;;5070033;28;20469;-67
2021/05/06 10:04:23;;;;;;;2.93;2.43;;;16.80;59.60;;;;;;5081974;28;20401;-67
2021/05/06 10:12:38;;;;;;;3.77;2.90;;;16.50;58.80;;;;;;5111578;27;20875;-67
2021/05/06 10:15:07;;;;;;;3.43;2.97;;;16.40;60.10;;;;;;5091614;28;20791;-67
2021/05/06 10:17:33;;;;;;;6.23;5.73;;;16.20;59.00;;;;;;5090656;28;20385;-67
2021/05/06 10:19:59;;;;;;;3.90;3.50;;;16.10;61.80;;;;;;5090551;28;20473;-67
2021/05/06 10:22:27;;;;;;;3.57;3.27;;;15.80;64.40;;;;;;5090800;28;20178;-67
2021/05/06 10:24:53;;;;;;;3.93;3.63;;;15.50;63.20;;;;;;5090261;28;20389;-67
2021/05/06 10:27:21;;;;;;;3.70;3.37;;;15.30;61.70;;;;;;5093204;28;20759;-67
2021/05/06 10:29:51;;;;;;;5.23;2.83;;;15.10;63.00;;;;;;5110082;28;20414;-67
2021/05/06 10:32:17;;;;;;;3.10;2.70;;;15.10;61.90;;;;;;5104345;28;20476;-67
2021/05/06 10:34:46;;;;;;;4.07;2.60;;;15.10;61.40;;;;;;5090350;28;20395;-67
2021/05/06 10:37:12;;;;;;;4.40;2.70;;;15.20;62.60;;;;;;5107270;28;20488;-68
2021/05/06 10:39:40;;;;;;;11.63;10.10;;;15.20;62.70;;;;;;5092845;28;20407;-67
2021/05/06 10:47:58;;;;;;;3.13;2.47;;;15.40;57.70;;;;;;5100994;27;20580;-67
2021/05/06 10:50:33;;;;;;;2.90;2.60;;;15.30;59.50;;;;;;5090652;28;20392;-68
2021/05/06 10:52:59;;;;;;;4.43;3.80;;;15.30;57.60;;;;;;5090791;28;20446;-67
2021/05/06 11:03:42;;;;;;;3.50;2.20;;;15.40;58.50;;;;;;5110772;27;20503;-67
2021/05/06 11:06:29;;;;;;;3.20;2.03;;;15.60;57.50;;;;;;5090601;28;20406;-67
2021/05/06 11:08:54;;;;;;;3.07;2.33;;;15.40;56.90;;;;;;5075270;28;20433;-66
2021/05/06 11:11:20;;;;;;;2.80;2.20;;;15.10;57.20;;;;;;5090452;28;20380;-67
2021/05/06 11:14:08;;;;;;;7.40;2.70;;;14.90;58.00;;;;;;5090375;28;20153;-67
2021/05/06 11:16:35;;;;;;;3.40;2.03;;;14.90;58.90;;;;;;5074280;28;20415;-67
2021/05/06 11:19:01;;;;;;;2.13;1.60;;;14.80;56.60;;;;;;5089003;28;20418;-67
2021/05/06 11:29:38;;;;;;;2.40;2.30;;;14.70;56.50;;;;;;5101209;27;20879;-68
2021/05/06 11:32:20;;;;;;;3.87;2.27;;;14.60;57.50;;;;;;5088707;28;20938;-67
2021/05/06 11:34:49;;;;;;;2.63;2.40;;;14.50;57.80;;;;;;5087273;28;20421;-67
2021/05/06 11:37:18;;;;;;;3.07;2.57;;;14.40;58.00;;;;;;5089950;28;20467;-67
2021/05/06 11:39:47;;;;;;;3.87;2.87;;;14.50;56.80;;;;;;5088589;28;20441;-67
2021/05/06 11:42:13;;;;;;;2.07;1.87;;;14.60;55.90;;;;;;5088777;28;20426;-67
2021/05/06 11:44:39;;;;;;;3.00;2.40;;;14.70;57.10;;;;;;5091071;28;20403;-67
2021/05/06 11:47:04;;;;;;;3.30;2.40;;;14.90;58.30;;;;;;5090443;28;20183;-67
2021/05/06 11:49:30;;;;;;;3.50;2.23;;;14.90;57.70;;;;;;5090589;28;20205;-67
2021/05/06 11:51:55;;;;;;;2.30;1.90;;;14.90;56.50;;;;;;5089028;28;20177;-67
2021/05/06 11:54:23;;;;;;;5.93;2.70;;;14.80;56.50;;;;;;5088604;28;20175;-67
2021/05/06 11:59:29;;;;;;;3.53;2.50;;;14.50;57.00;;;;;;5090747;28;20514;-66
2021/05/06 12:01:57;;;;;;;3.33;2.20;;;14.40;58.60;;;;;;5090850;28;20442;-66
2021/05/06 12:04:25;;;;;;;3.70;2.57;;;14.30;59.70;;;;;;5091262;28;20408;-68
2021/05/06 12:06:51;;;;;;;3.70;3.10;;;14.30;61.00;;;;;;5090599;28;20386;-66
2021/05/06 12:09:26;;;;;;;5.03;2.87;;;14.40;66.20;;;;;;5090377;28;20389;-65
2021/05/06 12:11:52;;;;;;;5.43;2.53;;;14.40;62.60;;;;;;5089653;28;20396;-68
2021/05/06 12:14:30;;;;;;;5.13;2.40;;;14.40;59.40;;;;;;5090298;28;20389;-65
2021/05/06 12:16:56;;;;;;;4.73;3.07;;;14.40;59.40;;;;;;5090277;28;20465;-66
2021/05/06 12:19:21;;;;;;;2.53;2.20;;;14.40;58.10;;;;;;5087796;28;20533;-66
2021/05/06 12:21:53;;;;;;;2.67;2.47;;;14.40;58.00;;;;;;5083964;28;20258;-66
2021/05/06 12:24:41;;;;;;;2.90;2.60;;;14.50;57.40;;;;;;5086081;28;20175;-66
2021/05/06 12:32:34;;;;;;;4.20;2.10;;;14.40;55.90;;;;;;5111546;27;20507;-67
2021/05/06 12:35:00;;;;;;;2.20;2.10;;;14.70;56.60;;;;;;5110947;28;20401;-67
2021/05/06 12:37:29;;;;;;;2.33;1.80;;;14.80;57.30;;;;;;5110850;28;20236;-67
2021/05/06 12:39:55;;;;;;;4.03;2.80;;;15.00;53.20;;;;;;5111035;28;20924;-67
2021/05/06 12:42:31;;;;;;;3.37;1.93;;;15.10;51.40;;;;;;5110567;28;20397;-67
2021/05/06 12:44:57;;;;;;;4.93;3.80;;;15.00;50.30;;;;;;5110613;28;20384;-67
2021/05/06 12:47:28;;;;;;;3.73;2.10;;;14.60;51.10;;;;;;5104968;28;20464;-67
2021/05/06 12:52:56;;;;;;;3.77;1.67;;;14.50;51.70;;;;;;5110936;27;20794;-67
2021/05/06 12:55:31;;;;;;;2.90;1.97;;;14.60;53.80;;;;;;5110857;28;20395;-67
2021/05/06 13:03:31;;;;;;;2.27;1.80;;;14.60;52.00;;;;;;5104917;27;20561;-66
2021/05/06 13:06:04;;;;;;;3.10;2.10;;;14.70;51.30;;;;;;5087429;28;20430;-66
2021/05/06 13:08:46;;;;;;;2.77;2.03;;;14.80;51.50;;;;;;5090180;28;20989;-67
2021/05/06 13:11:14;;;;;;;2.03;1.80;;;14.90;51.70;;;;;;5070070;28;20909;-67
2021/05/06 13:13:43;;;;;;;2.10;1.90;;;15.10;51.80;;;;;;5081252;28;20402;-67
2021/05/06 13:16:11;;;;;;;2.70;2.03;;;15.20;51.90;;;;;;5089756;28;20447;-67
2021/05/06 13:18:36;;;;;;;2.80;1.87;;;15.40;51.70;;;;;;5090177;28;20404;-67
2021/05/06 13:21:05;;;;;;;2.93;2.00;;;15.40;51.30;;;;;;5089966;28;20473;-67
2021/05/06 13:23:33;;;;;;;3.20;2.00;;;15.50;51.30;;;;;;5090125;28;20403;-67
2021/05/06 13:26:01;;;;;;;2.30;1.93;;;15.50;52.00;;;;;;5084109;28;20481;-67
2021/05/06 13:31:14;;;;;;;3.90;2.47;;;15.50;52.00;;;;;;5089094;27;20913;-67
2021/05/06 13:33:41;;;;;;;2.97;2.50;;;15.40;50.50;;;;;;5088622;28;20717;-67
2021/05/06 13:39:04;;;;;;;2.97;2.67;;;15.20;52.20;;;;;;5093264;27;21037;-67
2021/05/06 13:44:07;;;;;;;2.37;2.00;;;15.20;51.90;;;;;;5131247;27;20535;-66
2021/05/06 13:46:41;;;;;;;3.40;1.93;;;14.80;52.20;;;;;;5131323;28;20389;-66
2021/05/06 13:49:07;;;;;;;3.80;2.03;;;14.80;52.40;;;;;;5131424;28;20427;-66
2021/05/06 13:51:32;;;;;;;2.33;2.00;;;14.80;52.80;;;;;;5131352;28;20388;-66
2021/05/06 13:53:58;;;;;;;2.77;2.57;;;14.80;51.90;;;;;;5129281;28;20687;-66
2021/05/06 13:56:24;;;;;;;4.10;1.90;;;14.80;52.10;;;;;;5110711;28;20161;-66
2021/05/06 13:58:50;;;;;;;3.80;1.80;;;14.90;53.50;;;;;;5110571;28;20189;-66
2021/05/06 14:01:17;;;;;;;3.20;2.10;;;15.10;53.80;;;;;;5110512;28;20390;-66
2021/05/06 14:03:43;;;;;;;2.17;1.83;;;15.30;52.80;;;;;;5110335;28;20912;-66
2021/05/06 14:06:08;;;;;;;3.20;2.03;;;15.40;51.20;;;;;;5110284;28;20410;-66
2021/05/06 14:08:35;;;;;;;3.50;2.17;;;15.50;49.90;;;;;;5110398;28;20237;-66
2021/05/06 14:11:01;;;;;;;4.43;2.67;;;15.50;49.40;;;;;;5110936;28;20258;-66
2021/05/06 14:13:27;;;;;;;4.37;2.70;;;15.50;49.60;;;;;;5110629;28;20399;-66
2021/05/06 14:15:54;;;;;;;5.27;3.63;;;15.50;50.30;;;;;;5110282;28;20402;-66
2021/05/06 14:18:20;;;;;;;2.30;2.10;;;15.50;51.00;;;;;;5110294;28;20392;-66
2021/05/06 14:20:47;;;;;;;3.63;2.67;;;15.60;51.10;;;;;;5110411;28;20759;-66
2021/05/06 14:23:16;;;;;;;2.40;2.20;;;15.70;51.10;;;;;;5109968;28;20529;-67
2021/05/06 14:25:42;;;;;;;3.30;2.00;;;15.60;50.60;;;;;;5110027;28;20402;-66
2021/05/06 14:28:08;;;;;;;2.20;1.93;;;15.50;50.10;;;;;;5113518;28;20426;-66
2021/05/06 14:30:34;;;;;;;6.80;6.03;;;15.40;49.40;;;;;;5130734;28;20610;-66
2021/05/06 14:33:00;;;;;;;4.37;3.87;;;15.30;50.40;;;;;;5130467;27;20413;-66
2021/05/06 14:35:26;;;;;;;5.30;2.90;;;15.30;51.00;;;;;;5130332;27;20433;-66
2021/05/06 14:37:51;;;;;;;5.27;2.80;;;15.10;50.40;;;;;;5130405;28;20886;-66
2021/05/06 14:40:17;;;;;;;3.20;2.87;;;15.00;50.30;;;;;;5130232;28;20397;-66
2021/05/06 14:42:43;;;;;;;5.50;2.37;;;15.00;51.30;;;;;;5130510;27;20252;-66
2021/05/06 14:45:12;;;;;;;2.50;2.17;;;14.90;50.70;;;;;;5129355;28;20417;-66
2021/05/06 14:47:39;;;;;;;2.77;1.97;;;14.30;51.70;;;;;;5130192;28;20388;-66
2021/05/06 14:50:07;;;;;;;2.90;2.13;;;14.30;53.30;;;;;;5129828;27;20396;-66
2021/05/06 14:52:33;;;;;;;2.60;2.40;;;14.20;53.00;;;;;;5129813;27;20439;-66
2021/05/06 14:54:58;;;;;;;2.63;1.90;;;14.00;53.60;;;;;;5119339;28;20849;-66
2021/05/06 14:57:25;;;;;;;3.27;2.73;;;13.90;53.90;;;;;;5116737;28;20147;-66
2021/05/06 14:59:50;;;;;;;7.10;2.60;;;13.60;54.60;;;;;;5116438;28;20257;-66
2021/05/06 15:02:16;;;;;;;2.77;2.43;;;13.50;55.70;;;;;;5115432;28;20535;-66
2021/05/06 15:04:41;;;;;;;4.33;3.43;;;13.40;56.10;;;;;;5116265;28;20165;-66
2021/05/06 15:07:07;;;;;;;6.10;4.57;;;13.30;56.50;;;;;;5116108;28;20151;-66
2021/05/06 15:09:33;;;;;;;4.77;3.27;;;13.20;56.80;;;;;;5116114;28;20603;-66
2021/05/06 15:11:59;;;;;;;3.30;2.70;;;13.30;57.30;;;;;;5116756;28;20519;-66
2021/05/06 15:14:25;;;;;;;3.47;2.30;;;13.40;57.90;;;;;;5116060;28;20181;-66
2021/05/06 15:16:51;;;;;;;5.53;2.70;;;13.40;57.50;;;;;;5115966;28;20389;-66
2021/05/06 15:19:16;;;;;;;3.43;3.00;;;13.50;57.70;;;;;;5115329;28;20436;-66
2021/05/06 15:21:42;;;;;;;3.30;3.00;;;13.40;58.00;;;;;;5115747;28;20597;-66
2021/05/06 15:24:08;;;;;;;2.63;2.43;;;13.40;57.70;;;;;;5116030;28;20154;-66
2021/05/06 15:26:36;;;;;;;2.77;2.57;;;13.40;58.10;;;;;;5116555;28;20237;-66
2021/05/06 15:29:03;;;;;;;2.10;1.90;;;13.40;58.70;;;;;;5097814;28;20444;-66
2021/05/06 15:31:28;;;;;;;3.00;2.00;;;13.40;58.30;;;;;;5095268;28;20416;-66
2021/05/06 15:33:54;;;;;;;2.27;2.00;;;13.40;58.00;;;;;;5095195;28;20401;-66
2021/05/06 15:36:19;;;;;;;5.13;2.90;;;13.40;57.90;;;;;;5095717;28;20613;-66
2021/05/06 15:38:45;;;;;;;2.97;2.70;;;13.40;58.60;;;;;;5095306;28;20204;-66
2021/05/06 15:41:11;;;;;;;3.50;2.63;;;13.50;61.10;;;;;;5096020;28;20155;-66
2021/05/06 15:43:37;;;;;;;3.90;2.73;;;13.50;62.20;;;;;;5094943;28;20281;-66
2021/05/06 15:46:02;;;;;;;3.17;2.67;;;13.40;61.30;;;;;;5094985;28;20915;-66
2021/05/06 15:48:28;;;;;;;3.03;2.73;;;13.30;62.30;;;;;;5094973;28;20171;-66
2021/05/06 15:50:53;;;;;;;4.20;2.53;;;13.30;65.10;;;;;;5094870;28;20188;-66
2021/05/06 15:53:21;;;;;;;2.50;2.30;;;13.20;65.90;;;;;;5095447;28;20182;-66
2021/05/06 15:55:46;;;;;;;3.60;3.10;;;13.10;66.50;;;;;;5095426;28;20216;-66
2021/05/06 15:58:12;;;;;;;6.07;2.93;;;13.00;69.60;;;;;;5094967;28;20405;-66
2021/05/06 16:00:37;;;;;;;3.53;2.93;;;12.90;71.00;;;;;;5094890;28;20167;-66
2021/05/06 16:03:10;;;;;;;3.00;2.80;;;12.80;70.60;;;;;;5094567;28;20210;-66
2021/05/06 16:05:38;;;;;;;5.83;2.20;;;12.70;72.00;;;;;;5093627;28;20147;-66
2021/05/06 16:08:04;;;;;;;3.90;2.90;;;12.50;73.20;;;;;;5095219;28;20381;-66
2021/05/06 16:10:30;;;;;;;4.27;3.20;;;12.40;74.20;;;;;;5095756;28;20412;-66
2021/05/06 16:12:55;;;;;;;6.30;3.10;;;12.40;75.50;;;;;;5094484;28;20893;-66
2021/05/06 16:15:22;;;;;;;3.63;3.33;;;12.40;76.60;;;;;;5094447;28;20246;-66
2021/05/06 16:17:48;;;;;;;3.80;3.10;;;12.30;77.20;;;;;;5094482;28;20608;-66
2021/05/06 16:20:18;;;;;;;3.73;3.30;;;12.40;82.10;;;;;;5094867;28;20450;-66
2021/05/06 16:22:44;;;;;;;3.50;3.20;;;12.30;81.70;;;;;;5095336;28;20179;-66
2021/05/06 16:25:12;;;;;;;5.80;3.50;;;12.20;83.60;;;;;;5094529;28;20810;-66
2021/05/06 16:27:39;;;;;;;5.23;4.23;;;12.10;87.30;;;;;;5094827;28;20473;-66
2021/05/06 16:30:07;;;;;;;3.13;2.87;;;11.90;90.50;;;;;;5094238;28;20388;-66
2021/05/06 16:32:32;;;;;;;3.70;3.40;;;11.80;92.20;;;;;;5094177;28;20392;-66
2021/05/06 16:35:00;;;;;;;2.70;2.50;;;11.80;94.30;;;;;;5094139;28;20775;-66
2021/05/06 16:37:32;;;;;;;4.23;3.83;;;11.70;96.20;;;;;;5094366;28;20233;-66
2021/05/06 16:45:36;;;;;;;5.07;3.40;;;11.70;99.20;;;;;;5108476;28;20571;-67
2021/05/06 16:48:03;;;;;;;4.37;3.80;;;11.60;99.30;;;;;;5090604;28;20908;-67
2021/05/06 16:50:29;;;;;;;4.60;3.97;;;11.60;99.90;;;;;;5090539;28;20388;-67
2021/05/06 16:52:54;;;;;;;3.63;3.33;;;11.60;99.90;;;;;;5090749;28;20454;-67
2021/05/06 16:55:21;;;;;;;4.73;3.27;;;11.60;99.90;;;;;;5090354;28;20540;-67
2021/05/06 16:57:46;;;;;;;4.10;3.70;;;11.50;99.90;;;;;;5090193;28;20206;-67
2021/05/06 17:00:12;;;;;;;4.50;3.00;;;11.40;99.90;;;;;;5090103;28;20415;-68
2021/05/06 17:02:38;;;;;;;3.60;3.30;;;11.30;99.20;;;;;;5090574;28;20300;-67
2021/05/06 17:05:09;;;;;;;4.23;3.83;;;11.30;99.80;;;;;;5090928;28;20474;-67
2021/05/06 17:07:34;;;;;;;4.10;3.47;;;11.30;99.90;;;;;;5090700;28;20166;-67